CheckWX is a tool to help pilots better visualize weather data.  It is not intended as a substitute for an official pre-flight weather briefing.

17:30:36 UTC

KHPN TAF
Westchester County Airport
White Plains, New York, USA
KHPN 061722Z 0618/0718 33010KT P6SM FEW250 FM070000 31003KT P6SM SKC FM070900 00000KT P6SM BKN150 FM071500 23006KT P6SM BKN100 AMD NOT SKED

Apr-6@
18:00 UTC

Apr-6 @ 18:00 UTC

Apr-7@
00:00 UTC

Apr-7 @ 00:00 UTC

TAF KHPN 061722Z 0618/0718 33010KT P6SM FEW250

Expired

Wind
  • 330° at 10 KTS
Cloud Levels
  • Few at 25,000' AGL

Apr-7@
00:00 UTC

Apr-7 @ 00:00 UTC

Apr-7@
09:00 UTC

Apr-7 @ 09:00 UTC

FM070000 31003KT P6SM SKC

Expired

Wind
  • 310° at 3 KTS
Cloud Levels
  • Clear skies

Apr-7@
09:00 UTC

Apr-7 @ 09:00 UTC

Apr-7@
15:00 UTC

Apr-7 @ 15:00 UTC

FM070900 00000KT P6SM BKN150

Expired

Cloud Levels
  • Broken at 15,000' AGL

Apr-7@
15:00 UTC

Apr-7 @ 15:00 UTC

Apr-7@
18:00 UTC

Apr-7 @ 18:00 UTC

FM071500 23006KT P6SM BKN100 AMD NOT SKED

From

From Standard forecast or significant change

Wind
  • 230° at 6 KTS
Cloud Levels
  • Broken at 10,000' AGL